Brentwood, New York
Current Conditions -  °F | °C
As of 10:56 AM on Friday 24 Oct 2014 (Local Time) from KISP Reporting Station
Light Rain Light Rain  
Wind Chill: 51°   Ceiling: 900
Heat Index: 51°   Visibility: 4mi
Dew Point: 48°   Wind: 14mph
Humidity: 89%   Direction: 320°NW
Pressure: 29.77"   Gusts: 23mph
Location:  40.78°N, 73.25°W
Report Text: KISP 241456Z 32012G20KT 4SM -RA BR BKN009 BKN021 OVC150 11/09 A2977 RMK AO2 SLP083 P0000 60005 T01060089 51003
Loading
Personal Weather Stations






























Interactive Weather Map
Tropical Storm Tracking
New forecast layout! Learn more

10-Day Weather Forecast

Advertisements
Track Severe Weather on mobile